createdAt,value
2019-04-10T00:01:25.997Z,31.80
2019-04-10T00:03:56.800Z,31.10
2019-04-10T00:06:27.901Z,32.77
2019-04-10T00:08:58.809Z,30.83
2019-04-10T00:11:29.534Z,30.53
2019-04-10T00:14:00.809Z,29.60
2019-04-10T00:16:31.986Z,29.37
2019-04-10T00:19:02.671Z,28.80
2019-04-10T00:21:33.390Z,29.23
2019-04-10T00:24:03.943Z,28.63
2019-04-10T00:26:34.673Z,25.90
2019-04-10T00:29:05.758Z,27.00
2019-04-10T00:31:36.229Z,26.10
2019-04-10T00:34:07.390Z,26.50
2019-04-10T00:36:37.916Z,25.60
2019-04-10T00:39:10.514Z,23.53
2019-04-10T00:41:41.224Z,26.80
2019-04-10T00:44:11.855Z,24.37
2019-04-10T00:46:42.274Z,23.93
2019-04-10T00:49:13.474Z,25.17
2019-04-10T00:51:43.956Z,23.27
2019-04-10T00:54:14.689Z,23.60
2019-04-10T00:56:45.370Z,21.10
2019-04-10T00:59:19.977Z,22.67
2019-04-10T01:01:50.493Z,23.83
2019-04-10T01:04:21.100Z,22.67
2019-04-10T01:06:52.433Z,24.10
2019-04-10T01:09:23.668Z,21.87
2019-04-10T01:11:55.242Z,22.00
2019-04-10T01:14:25.773Z,21.33
2019-04-10T01:16:56.418Z,22.27
2019-04-10T01:19:28.029Z,21.27
2019-04-10T01:21:58.918Z,21.33
2019-04-10T01:24:30.000Z,20.83
2019-04-10T01:27:01.320Z,20.80
2019-04-10T01:29:31.819Z,20.43
2019-04-10T01:32:02.261Z,20.83
2019-04-10T01:34:33.631Z,21.00
2019-04-10T01:37:04.784Z,19.50
2019-04-10T01:39:35.274Z,19.97
2019-04-10T01:42:06.168Z,19.37
2019-04-10T01:44:36.632Z,18.90
2019-04-10T01:47:07.062Z,19.97
2019-04-10T01:49:37.877Z,19.20
2019-04-10T01:52:08.900Z,18.87
2019-04-10T01:54:39.595Z,20.13
2019-04-10T01:57:10.349Z,18.00
2019-04-10T01:59:42.453Z,18.57
2019-04-10T02:02:37.895Z,16.53
2019-04-10T02:05:08.710Z,17.20
2019-04-10T02:07:40.274Z,17.83
2019-04-10T02:10:12.040Z,19.20
2019-04-10T02:12:43.673Z,17.47
2019-04-10T02:15:15.834Z,19.37
2019-04-10T02:17:46.640Z,20.47
2019-04-10T02:20:17.121Z,18.70
2019-04-10T02:22:47.991Z,17.37
2019-04-10T02:25:18.663Z,18.10
2019-04-10T02:27:49.118Z,17.10
2019-04-10T02:30:19.952Z,17.33
2019-04-10T02:32:52.849Z,18.43
2019-04-10T02:35:24.703Z,17.23
2019-04-10T02:37:56.256Z,18.57
2019-04-10T02:40:28.731Z,19.87
2019-04-10T02:43:00.112Z,19.27
2019-04-10T02:45:32.427Z,22.27
2019-04-10T02:48:04.030Z,20.60
2019-04-10T02:50:35.432Z,21.67
2019-04-10T02:53:07.570Z,21.23
2019-04-10T02:55:38.678Z,21.40
2019-04-10T02:58:09.740Z,21.03
2019-04-10T03:00:42.030Z,20.77
2019-04-10T03:03:13.691Z,23.17
2019-04-10T03:05:44.667Z,23.20
2019-04-10T03:08:17.236Z,23.87
2019-04-10T03:10:53.808Z,24.77
2019-04-10T03:13:21.746Z,23.53
2019-04-10T03:15:53.518Z,24.23
2019-04-10T03:18:25.035Z,22.50
2019-04-10T03:20:56.432Z,23.10
2019-04-10T03:23:27.093Z,23.53
2019-04-10T03:25:57.510Z,23.80
2019-04-10T03:28:29.126Z,24.20
2019-04-10T03:31:02.284Z,24.83
2019-04-10T03:33:55.327Z,24.17
2019-04-10T03:36:27.737Z,23.63
2019-04-10T03:39:02.033Z,23.77
2019-04-10T03:41:30.355Z,23.33
2019-04-10T03:44:00.808Z,24.20
2019-04-10T03:46:31.233Z,25.13
2019-04-10T03:49:01.704Z,23.70
2019-04-10T03:51:32.425Z,22.70
2019-04-10T03:54:02.925Z,22.77
2019-04-10T03:56:33.965Z,22.17
2019-04-10T03:59:04.513Z,21.57
2019-04-10T04:01:35.389Z,21.17
2019-04-10T04:04:06.979Z,22.03
2019-04-10T04:06:37.649Z,21.43
2019-04-10T04:09:11.571Z,20.77
2019-04-10T04:11:41.992Z,20.27
2019-04-10T04:14:12.498Z,20.10
2019-04-10T04:16:43.629Z,19.47
2019-04-10T04:19:14.069Z,19.23
2019-04-10T04:21:44.499Z,20.37
2019-04-10T04:24:15.582Z,20.93
2019-04-10T04:26:46.523Z,22.10
2019-04-10T04:29:17.003Z,21.87
2019-04-10T04:31:48.385Z,22.43
2019-04-10T04:34:18.996Z,21.80
2019-04-10T04:36:51.667Z,21.30
2019-04-10T04:39:26.808Z,22.80
2019-04-10T04:41:54.315Z,20.87
2019-04-10T04:44:24.777Z,23.17
2019-04-10T04:46:55.204Z,22.87
2019-04-10T04:49:26.407Z,23.20
2019-04-10T04:51:56.878Z,24.27
2019-04-10T04:54:27.304Z,22.87
2019-04-10T04:56:58.081Z,21.63
2019-04-10T04:59:28.576Z,23.73
2019-04-10T05:01:59.258Z,23.77
2019-04-10T05:04:32.216Z,24.23
2019-04-10T05:07:02.151Z,23.53
2019-04-10T05:09:36.972Z,23.47
2019-04-10T05:12:04.862Z,24.50
2019-04-10T05:14:35.685Z,24.80
2019-04-10T05:17:06.169Z,22.37
2019-04-10T05:19:36.590Z,26.53
2019-04-10T05:22:07.958Z,28.13
2019-04-10T05:24:38.584Z,27.43
2019-04-10T05:27:09.821Z,27.37
2019-04-10T05:29:40.887Z,29.47
2019-04-10T05:32:11.477Z,26.03
2019-04-10T05:34:43.273Z,27.80
2019-04-10T05:37:13.812Z,28.37
2019-04-10T05:39:49.140Z,28.13
2019-04-10T05:42:17.293Z,26.53
2019-04-10T05:44:47.872Z,27.67
2019-04-10T05:47:19.249Z,27.60
2019-04-10T05:49:49.806Z,26.87
2019-04-10T05:52:20.364Z,26.33
2019-04-10T05:54:51.605Z,28.23
2019-04-10T05:57:22.360Z,26.67
2019-04-10T05:59:52.841Z,27.80
2019-04-10T06:02:23.284Z,26.63
2019-04-10T06:04:53.866Z,27.73
2019-04-10T06:07:25.254Z,26.33
2019-04-10T06:10:02.004Z,25.70
2019-04-10T06:12:28.564Z,24.10
2019-04-10T06:14:59.094Z,25.20
2019-04-10T06:17:30.179Z,25.60
2019-04-10T06:20:00.982Z,25.67
2019-04-10T06:22:31.615Z,25.10
2019-04-10T06:25:03.942Z,24.87
2019-04-10T06:27:34.688Z,24.70
2019-04-10T06:30:06.109Z,20.67
2019-04-10T06:32:37.598Z,22.90
2019-04-10T06:35:08.747Z,21.73
2019-04-10T06:37:40.071Z,22.80
2019-04-10T06:40:16.960Z,21.93
2019-04-10T06:42:48.477Z,22.17
2019-04-10T06:45:15.611Z,21.90
2019-04-10T06:47:46.620Z,21.60
2019-04-10T06:50:17.163Z,22.83
2019-04-10T06:52:47.577Z,21.93
2019-04-10T06:55:18.596Z,22.93
2019-04-10T06:57:55.031Z,21.03
2019-04-10T07:00:21.503Z,22.07
2019-04-10T07:02:52.696Z,21.40
2019-04-10T07:05:24.171Z,23.53
2019-04-10T07:08:01.855Z,22.97
2019-04-10T07:10:33.553Z,22.37
2019-04-10T07:13:05.179Z,22.07
2019-04-10T07:15:33.528Z,21.27
2019-04-10T07:18:04.352Z,21.43
2019-04-10T07:20:34.791Z,21.27
2019-04-10T07:23:05.207Z,22.07
2019-04-10T07:25:35.620Z,22.87
2019-04-10T07:28:08.783Z,25.13
2019-04-10T07:30:38.730Z,25.87
2019-04-10T07:33:16.588Z,25.57
2019-04-10T07:35:46.433Z,26.23
2019-04-10T07:38:18.016Z,24.80
2019-04-10T07:40:49.134Z,25.03
2019-04-10T07:43:25.489Z,24.07
2019-04-10T07:45:51.793Z,25.33
2019-04-10T07:48:22.161Z,23.90
2019-04-10T07:50:53.549Z,22.53
2019-04-10T07:53:24.649Z,21.93
2019-04-10T07:56:03.067Z,21.17
2019-04-10T07:58:27.534Z,22.13
2019-04-10T08:00:58.878Z,19.93
2019-04-10T08:03:29.710Z,19.03
2019-04-10T08:06:00.363Z,19.43
2019-04-10T08:08:31.030Z,20.73
2019-04-10T08:11:01.853Z,19.83
2019-04-10T08:13:33.104Z,21.73
2019-04-10T08:16:03.616Z,20.47
2019-04-10T08:18:35.028Z,20.63
2019-04-10T08:21:05.597Z,21.70
2019-04-10T08:23:40.341Z,20.00
2019-04-10T08:26:10.825Z,21.77
2019-04-10T08:28:41.348Z,19.70
2019-04-10T08:31:12.699Z,19.13
2019-04-10T08:33:44.101Z,19.30
2019-04-10T08:36:15.110Z,18.90
2019-04-10T08:38:46.634Z,19.00
2019-04-10T08:41:17.199Z,17.53
2019-04-10T08:43:48.171Z,19.50
2019-04-10T08:46:19.761Z,18.53
2019-04-10T08:48:50.341Z,17.17
2019-04-10T08:51:21.438Z,16.63
2019-04-10T08:53:54.198Z,16.73
2019-04-10T08:56:24.762Z,15.60
2019-04-10T08:58:55.217Z,15.97
2019-04-10T09:01:25.642Z,17.27
2019-04-10T09:03:56.066Z,18.00
2019-04-10T09:06:27.256Z,18.57
2019-04-10T09:08:57.740Z,19.83
2019-04-10T09:11:30.094Z,17.73
2019-04-10T09:14:01.063Z,18.13
2019-04-10T09:16:31.658Z,18.93
2019-04-10T09:19:03.397Z,17.77
2019-04-10T09:21:34.626Z,18.23
2019-04-10T09:24:05.298Z,18.50
2019-04-10T09:26:36.175Z,19.30
2019-04-10T09:29:06.889Z,18.27
2019-04-10T09:31:37.828Z,20.97
2019-04-10T09:34:09.602Z,19.43
2019-04-10T09:36:40.113Z,18.90
2019-04-10T09:39:11.573Z,21.40
2019-04-10T09:41:43.913Z,20.87
2019-04-10T09:44:14.479Z,19.57
2019-04-10T09:46:45.081Z,18.83
2019-04-10T09:49:16.557Z,18.23
2019-04-10T09:51:48.161Z,17.23
2019-04-10T09:54:18.637Z,15.67
2019-04-10T09:56:49.060Z,17.17
2019-04-10T09:59:30.596Z,18.27
2019-04-10T10:01:52.743Z,18.60
2019-04-10T10:04:23.631Z,18.70
2019-04-10T10:06:54.150Z,18.80
2019-04-10T10:09:24.574Z,17.93
2019-04-10T10:11:55.555Z,15.93
2019-04-10T10:14:26.642Z,15.77
2019-04-10T10:16:58.011Z,16.40
2019-04-10T10:19:31.995Z,14.77
2019-04-10T10:22:04.962Z,14.77
2019-04-10T10:24:36.644Z,15.93
2019-04-10T10:27:07.963Z,16.17
2019-04-10T10:29:38.348Z,15.43
2019-04-10T10:32:10.847Z,17.00
2019-04-10T10:34:41.451Z,17.47
2019-04-10T10:37:12.533Z,17.07
2019-04-10T10:39:43.162Z,17.20
2019-04-10T10:42:13.758Z,17.57
2019-04-10T10:44:44.172Z,18.37
2019-04-10T10:47:15.761Z,17.03
2019-04-10T10:49:46.627Z,17.43
2019-04-10T10:52:17.550Z,17.33
2019-04-10T10:54:49.301Z,18.27
2019-04-10T10:57:19.890Z,20.17
2019-04-10T10:59:51.448Z,19.17
2019-04-10T11:02:21.973Z,19.60
2019-04-10T11:04:52.400Z,17.90
2019-04-10T11:07:24.554Z,20.17
2019-04-10T11:09:55.113Z,18.10
2019-04-10T11:12:26.368Z,18.37
2019-04-10T11:14:56.929Z,18.60
2019-04-10T11:17:28.233Z,19.23
2019-04-10T11:19:59.504Z,19.50
2019-04-10T11:22:31.531Z,21.17
2019-04-10T11:25:02.084Z,21.17
2019-04-10T11:27:34.245Z,22.27
2019-04-10T11:30:05.360Z,24.73
2019-04-10T11:32:36.693Z,24.90
2019-04-10T11:35:08.724Z,25.00
2019-04-10T11:37:44.524Z,24.93
2019-04-10T11:40:12.384Z,27.17
2019-04-10T11:42:44.746Z,27.53
2019-04-10T11:45:17.002Z,27.83
2019-04-10T11:47:50.735Z,26.97
2019-04-10T11:50:21.619Z,28.73
2019-04-10T11:52:53.529Z,29.67
2019-04-10T11:55:26.141Z,30.03
2019-04-10T11:57:59.447Z,29.67
2019-04-10T12:00:50.386Z,29.83
2019-04-10T12:03:17.870Z,30.20
2019-04-10T12:05:49.097Z,30.40
2019-04-10T12:08:46.312Z,30.93
2019-04-10T12:13:26.088Z,33.57
2019-04-10T12:15:56.799Z,30.97
2019-04-10T12:18:27.223Z,31.50
2019-04-10T12:20:57.707Z,32.17
2019-04-10T12:23:29.170Z,32.77
2019-04-10T12:25:59.621Z,32.73
2019-04-10T12:28:30.045Z,33.37
2019-04-10T12:31:01.666Z,34.23
2019-04-10T12:33:32.229Z,31.53
2019-04-10T12:36:02.657Z,33.40
2019-04-10T12:38:33.981Z,32.57
2019-04-10T12:41:04.546Z,33.33
2019-04-10T12:43:34.974Z,33.07
2019-04-10T12:46:05.547Z,32.87
2019-04-10T12:48:36.907Z,32.57
2019-04-10T12:51:07.695Z,32.80
2019-04-10T12:53:38.309Z,32.77
2019-04-10T12:56:08.913Z,32.47
2019-04-10T12:58:40.684Z,34.07
2019-04-10T13:01:12.583Z,30.93
2019-04-10T13:03:43.189Z,32.67
2019-04-10T13:06:13.700Z,32.37
2019-04-10T13:08:55.710Z,32.37
2019-04-10T13:11:16.701Z,32.90
2019-04-10T13:13:48.390Z,32.93
2019-04-10T13:16:20.264Z,34.53
2019-04-10T13:18:50.772Z,34.57
2019-04-10T13:21:22.118Z,33.40
2019-04-10T13:23:53.045Z,32.63
2019-04-10T13:26:23.949Z,32.63
2019-04-10T13:28:54.441Z,34.50
2019-04-10T13:31:25.573Z,31.43
2019-04-10T13:33:56.977Z,32.13
2019-04-10T13:36:27.661Z,31.33
2019-04-10T13:38:58.299Z,30.17
2019-04-10T13:41:28.710Z,32.93
2019-04-10T13:44:00.256Z,33.23
2019-04-10T13:46:31.039Z,32.43
2019-04-10T13:49:01.941Z,32.07
2019-04-10T13:51:32.476Z,32.27
2019-04-10T13:54:04.008Z,33.00
2019-04-10T13:56:34.550Z,33.20
2019-04-10T13:59:05.246Z,33.90
2019-04-10T14:01:35.808Z,32.20
2019-04-10T14:04:07.083Z,33.50
2019-04-10T14:06:38.041Z,32.23
2019-04-10T14:09:31.214Z,34.43
2019-04-10T14:11:49.513Z,30.97
2019-04-10T14:14:20.336Z,31.20
2019-04-10T14:16:51.010Z,31.10
2019-04-10T14:19:21.508Z,32.80
2019-04-10T14:21:52.025Z,30.87
2019-04-10T14:24:22.760Z,29.63
2019-04-10T14:27:12.144Z,30.20
2019-04-10T14:29:42.724Z,30.67
2019-04-10T14:32:18.218Z,29.43
2019-04-10T14:34:48.633Z,29.80
2019-04-10T14:37:19.438Z,28.83
2019-04-10T14:39:49.897Z,30.03
2019-04-10T14:42:20.342Z,28.87
2019-04-10T14:44:50.973Z,30.03
2019-04-10T14:47:21.953Z,26.87
2019-04-10T14:49:54.056Z,27.90
2019-04-10T14:52:25.356Z,26.87
2019-04-10T14:54:56.525Z,25.83
2019-04-10T14:57:27.301Z,27.53
2019-04-10T14:59:57.938Z,25.90
2019-04-10T15:02:28.634Z,25.73
2019-04-10T15:04:59.550Z,25.70
2019-04-10T15:07:31.066Z,26.03
2019-04-10T15:10:01.484Z,24.57
2019-04-10T15:12:32.256Z,24.60
2019-04-10T15:15:03.942Z,25.10
2019-04-10T15:17:34.535Z,23.97
2019-04-10T15:20:05.036Z,25.07
2019-04-10T15:22:35.804Z,23.10
2019-04-10T15:25:06.798Z,23.27
2019-04-10T15:27:37.525Z,22.27
2019-04-10T15:30:08.447Z,21.97
2019-04-10T15:32:39.931Z,21.13
2019-04-10T15:35:10.672Z,21.33
2019-04-10T15:37:41.602Z,20.47
2019-04-10T15:40:19.911Z,19.70
2019-04-10T15:42:44.602Z,19.30
2019-04-10T15:45:15.350Z,20.50
2019-04-10T15:47:52.454Z,20.63
2019-04-10T15:50:18.075Z,20.77
2019-04-10T15:52:48.564Z,19.00
2019-04-10T15:55:19.512Z,20.57
2019-04-10T15:57:53.818Z,20.30
2019-04-10T16:00:23.249Z,19.17
2019-04-10T16:02:54.027Z,20.00
2019-04-10T16:05:25.846Z,21.13
2019-04-10T16:07:56.357Z,19.93
2019-04-10T16:10:49.585Z,20.37
2019-04-10T16:13:38.799Z,20.97
2019-04-10T16:16:31.862Z,20.63
2019-04-10T16:19:12.704Z,19.10
2019-04-10T16:21:43.725Z,19.77
2019-04-10T16:24:14.709Z,20.47
2019-04-10T16:26:45.408Z,19.97
2019-04-10T16:29:16.008Z,19.40
2019-04-10T16:31:46.478Z,19.23
2019-04-10T16:34:17.701Z,20.50
2019-04-10T16:36:48.279Z,21.03
2019-04-10T16:39:19.769Z,19.50
2019-04-10T16:41:50.422Z,20.30
2019-04-10T16:44:21.358Z,19.23
2019-04-10T16:46:53.088Z,19.97
2019-04-10T16:49:25.574Z,19.97
2019-04-10T16:51:56.721Z,21.00
2019-04-10T16:54:27.217Z,19.90
2019-04-10T16:56:58.288Z,19.60
2019-04-10T16:59:29.921Z,21.27
2019-04-10T17:02:01.727Z,21.03
2019-04-10T17:04:32.472Z,21.20
2019-04-10T17:07:03.230Z,21.03
2019-04-10T17:09:34.500Z,21.10
2019-04-10T17:12:06.450Z,22.57
2019-04-10T17:14:37.834Z,21.00
2019-04-10T17:17:08.507Z,22.10
2019-04-10T17:19:49.966Z,21.83
2019-04-10T17:22:11.401Z,21.70
2019-04-10T17:24:42.148Z,20.67
2019-04-10T17:27:13.196Z,22.87
2019-04-10T17:29:43.707Z,23.60
2019-04-10T17:32:15.222Z,22.30
2019-04-10T17:34:47.109Z,32.77
2019-04-10T17:37:17.971Z,24.20
2019-04-10T17:39:49.427Z,23.37
2019-04-10T17:42:20.152Z,21.93
2019-04-10T17:44:50.724Z,21.60
2019-04-10T17:47:21.301Z,23.50
2019-04-10T17:49:53.802Z,21.80
2019-04-10T17:52:24.961Z,21.53
2019-04-10T17:54:55.521Z,23.10
2019-04-10T17:57:35.252Z,24.83
2019-04-10T17:59:58.576Z,23.20
2019-04-10T18:02:29.192Z,24.30
2019-04-10T18:04:59.616Z,23.60
2019-04-10T18:07:30.192Z,23.40
2019-04-10T18:10:02.377Z,22.67
2019-04-10T18:12:34.099Z,23.23
2019-04-10T18:15:06.086Z,23.10
2019-04-10T18:17:36.770Z,27.33
2019-04-10T18:20:08.415Z,22.80
2019-04-10T18:22:38.953Z,22.07
2019-04-10T18:25:09.730Z,21.47
2019-04-10T18:27:40.713Z,22.17
2019-04-10T18:30:12.053Z,20.23
2019-04-10T18:32:42.493Z,22.00
2019-04-10T18:35:12.929Z,20.77
2019-04-10T18:37:44.534Z,20.43
2019-04-10T18:40:15.505Z,21.40
2019-04-10T18:42:46.028Z,21.80
2019-04-10T18:45:17.525Z,21.57
2019-04-10T18:47:48.157Z,21.70
2019-04-10T18:50:18.565Z,21.83
2019-04-10T18:52:49.697Z,20.20
2019-04-10T18:55:20.455Z,20.40
2019-04-10T18:57:51.422Z,19.40
2019-04-10T19:00:59.506Z,20.97
2019-04-10T19:04:02.623Z,20.27
2019-04-10T19:06:39.317Z,21.03
2019-04-10T19:09:18.500Z,20.57
2019-04-10T19:11:42.444Z,21.53
2019-04-10T19:14:14.483Z,20.07
2019-04-10T19:16:45.802Z,21.03
2019-04-10T19:19:16.597Z,22.30
2019-04-10T19:21:48.470Z,19.70
2019-04-10T19:24:19.738Z,21.67
2019-04-10T19:26:51.548Z,23.67
2019-04-10T19:29:23.392Z,22.70
2019-04-10T19:31:58.198Z,23.37
2019-04-10T19:34:29.507Z,24.20
2019-04-10T19:37:00.546Z,22.57
2019-04-10T19:39:32.222Z,22.97
2019-04-10T19:42:02.943Z,23.37
2019-04-10T19:44:33.595Z,21.70
2019-04-10T19:47:04.509Z,22.77
2019-04-10T19:49:35.285Z,23.90
2019-04-10T19:52:06.487Z,23.17
2019-04-10T19:54:38.760Z,21.83
2019-04-10T19:57:10.045Z,22.83
2019-04-10T19:59:40.478Z,22.87
2019-04-10T20:02:11.509Z,26.33
2019-04-10T20:04:42.924Z,25.17
2019-04-10T20:07:13.496Z,22.80
2019-04-10T20:09:44.369Z,22.60
2019-04-10T20:12:16.151Z,21.70
2019-04-10T20:14:46.704Z,19.87
2019-04-10T20:17:17.418Z,22.10
2019-04-10T20:19:48.895Z,21.87
2019-04-10T20:22:19.572Z,22.30
2019-04-10T20:24:51.821Z,21.30
2019-04-10T20:27:23.639Z,22.00
2019-04-10T20:29:55.161Z,21.43
2019-04-10T20:32:25.872Z,22.87
2019-04-10T20:34:58.020Z,21.97
2019-04-10T20:37:29.041Z,23.07
2019-04-10T20:39:59.576Z,21.47
2019-04-10T20:42:32.083Z,22.40
2019-04-10T20:45:03.070Z,22.83
2019-04-10T20:47:35.148Z,24.10
2019-04-10T20:50:07.798Z,23.10
2019-04-10T20:52:43.033Z,23.97
2019-04-10T20:55:15.968Z,21.40
2019-04-10T20:57:46.520Z,21.63
2019-04-10T21:00:22.403Z,21.37
2019-04-10T21:02:53.477Z,21.80
2019-04-10T21:05:24.657Z,20.00
2019-04-10T21:07:56.483Z,18.00
2019-04-10T21:10:29.041Z,16.03
2019-04-10T21:13:01.116Z,14.40
2019-04-10T21:15:31.767Z,14.07
2019-04-10T21:18:02.653Z,13.20
2019-04-10T21:24:25.301Z,13.40
2019-04-10T21:26:56.833Z,13.43
2019-04-10T21:29:50.948Z,13.07
2019-04-10T21:32:38.597Z,14.13
2019-04-10T21:35:11.869Z,12.93
2019-04-10T21:37:42.416Z,11.70
2019-04-10T21:40:13.023Z,11.17
2019-04-10T21:42:45.356Z,10.90
2019-04-10T21:45:15.999Z,10.67
2019-04-10T21:47:46.566Z,9.90
2019-04-10T21:50:18.571Z,8.97
2019-04-10T21:52:49.790Z,9.63
2019-04-10T21:55:21.008Z,9.40
2019-04-10T21:57:52.786Z,9.57
2019-04-10T22:00:36.838Z,8.70
2019-04-10T22:03:07.346Z,7.73
2019-04-10T22:05:40.966Z,7.37
2019-04-10T22:08:37.102Z,8.00
2019-04-10T22:11:08.549Z,7.70
2019-04-10T22:13:40.042Z,7.17
2019-04-10T22:16:11.575Z,7.43
2019-04-10T22:18:42.172Z,6.80
2019-04-10T22:21:12.699Z,6.13
2019-04-10T22:23:43.285Z,6.20
2019-04-10T22:26:13.873Z,6.23
2019-04-10T22:28:45.377Z,5.60
2019-04-10T22:31:16.308Z,5.20
2019-04-10T22:33:46.837Z,4.70
2019-04-10T22:36:17.231Z,4.60
2019-04-10T22:38:47.774Z,4.90
2019-04-10T22:41:26.477Z,5.33
2019-04-10T22:43:50.328Z,4.90
2019-04-10T22:46:21.376Z,4.70
2019-04-10T22:48:51.888Z,5.03
2019-04-10T22:51:22.433Z,4.50
2019-04-10T22:53:53.512Z,4.60
2019-04-10T22:56:25.070Z,4.57
2019-04-10T22:58:55.633Z,3.87
2019-04-10T23:01:27.131Z,4.20
2019-04-10T23:03:57.627Z,3.90
2019-04-10T23:06:29.163Z,4.00
2019-04-10T23:09:00.084Z,4.70
2019-04-10T23:11:36.805Z,4.17
2019-04-10T23:14:02.630Z,4.90
2019-04-10T23:16:33.025Z,4.50
2019-04-10T23:19:03.633Z,3.77
2019-04-10T23:21:34.135Z,3.90
2019-04-10T23:24:05.487Z,4.10
2019-04-10T23:26:37.431Z,4.43
2019-04-10T23:29:08.389Z,4.17
2019-04-10T23:31:39.514Z,4.57
2019-04-10T23:34:10.021Z,4.00
2019-04-10T23:36:40.469Z,4.30
2019-04-10T23:39:10.875Z,3.70
2019-04-10T23:41:42.101Z,4.30
2019-04-10T23:44:13.048Z,4.40
2019-04-10T23:46:43.558Z,4.30
2019-04-10T23:49:14.104Z,3.70
2019-04-10T23:51:45.411Z,4.53
2019-04-10T23:54:15.918Z,4.17
2019-04-10T23:56:49.103Z,4.43
2019-04-10T23:59:20.752Z,4.10
